createdAt,value
2018-05-31T00:00:45.782Z,0.00
2018-05-31T00:01:45.815Z,0.00
2018-05-31T00:02:45.840Z,0.00
2018-05-31T00:03:45.869Z,0.00
2018-05-31T00:04:45.905Z,0.00
2018-05-31T00:05:45.929Z,0.00
2018-05-31T00:06:45.962Z,0.00
2018-05-31T00:07:45.993Z,0.00
2018-05-31T00:08:46.022Z,0.00
2018-05-31T00:09:46.051Z,0.00
2018-05-31T00:10:46.079Z,0.00
2018-05-31T00:11:46.107Z,0.00
2018-05-31T00:12:46.137Z,0.00
2018-05-31T00:13:46.168Z,0.00
2018-05-31T00:14:46.203Z,0.00
2018-05-31T00:15:46.234Z,0.00
2018-05-31T00:16:46.259Z,0.00
2018-05-31T00:17:46.289Z,0.00
2018-05-31T00:18:46.319Z,0.00
2018-05-31T00:19:46.350Z,0.00
2018-05-31T00:20:46.387Z,0.00
2018-05-31T00:21:46.415Z,0.00
2018-05-31T00:22:46.437Z,0.00
2018-05-31T00:23:46.475Z,0.00
2018-05-31T00:24:46.498Z,0.00
2018-05-31T00:25:46.536Z,0.00
2018-05-31T00:26:46.560Z,0.00
2018-05-31T00:27:46.588Z,0.00
2018-05-31T00:28:46.617Z,0.00
2018-05-31T00:29:46.648Z,0.00
2018-05-31T00:30:46.729Z,0.00
2018-05-31T00:31:46.704Z,0.00
2018-05-31T00:32:46.747Z,0.00
2018-05-31T00:33:46.767Z,0.00
2018-05-31T00:34:46.797Z,0.00
2018-05-31T00:35:46.827Z,0.00
2018-05-31T00:36:46.856Z,0.00
2018-05-31T00:37:46.888Z,0.00
2018-05-31T00:38:46.919Z,0.00
2018-05-31T00:39:46.946Z,0.00
2018-05-31T00:40:46.982Z,0.00
2018-05-31T00:41:47.003Z,0.00
2018-05-31T00:42:47.037Z,0.00
2018-05-31T00:43:47.070Z,0.00
2018-05-31T00:44:47.098Z,0.00
2018-05-31T00:45:47.126Z,0.00
2018-05-31T00:46:47.157Z,0.00
2018-05-31T00:47:47.193Z,0.00
2018-05-31T00:48:47.217Z,0.00
2018-05-31T00:49:47.246Z,0.00
2018-05-31T00:50:47.276Z,0.00
2018-05-31T00:51:47.304Z,0.00
2018-05-31T00:52:47.331Z,0.00
2018-05-31T00:53:47.363Z,0.00
2018-05-31T00:54:47.396Z,0.00
2018-05-31T00:55:47.428Z,0.00
2018-05-31T00:56:47.452Z,0.00
2018-05-31T00:57:47.486Z,0.00
2018-05-31T00:58:47.515Z,0.00
2018-05-31T00:59:47.546Z,0.00
2018-05-31T01:00:47.579Z,0.00
2018-05-31T01:01:47.604Z,0.00
2018-05-31T01:02:47.640Z,0.00
2018-05-31T01:03:47.666Z,0.00
2018-05-31T01:04:47.692Z,0.00
2018-05-31T01:05:47.727Z,0.00
2018-05-31T01:06:47.753Z,0.00
2018-05-31T01:07:47.782Z,0.00
2018-05-31T01:08:47.811Z,0.00
2018-05-31T01:09:47.843Z,0.00
2018-05-31T01:10:47.870Z,0.00
2018-05-31T01:11:47.903Z,0.00
2018-05-31T01:12:47.930Z,0.00
2018-05-31T01:13:47.966Z,0.00
2018-05-31T01:14:47.987Z,0.00
2018-05-31T01:15:48.019Z,0.00
2018-05-31T01:16:48.051Z,0.00
2018-05-31T01:17:48.080Z,0.00
2018-05-31T01:18:48.116Z,0.00
2018-05-31T01:19:48.136Z,0.00
2018-05-31T01:20:48.171Z,0.00
2018-05-31T01:21:48.198Z,0.00
2018-05-31T01:22:48.226Z,0.00
2018-05-31T01:23:48.253Z,0.00
2018-05-31T01:24:48.285Z,0.00
2018-05-31T01:25:48.318Z,0.00
2018-05-31T01:26:48.344Z,0.00
2018-05-31T01:27:48.375Z,0.00
2018-05-31T01:28:48.405Z,0.00
2018-05-31T01:29:48.431Z,0.00
2018-05-31T01:30:48.465Z,0.00
2018-05-31T01:31:48.495Z,0.00
2018-05-31T01:32:48.523Z,0.00
2018-05-31T01:33:48.552Z,0.00
2018-05-31T01:34:48.581Z,0.00
2018-05-31T01:35:48.610Z,0.00
2018-05-31T01:36:48.642Z,0.00
2018-05-31T01:37:48.671Z,0.00
2018-05-31T01:38:48.705Z,0.00
2018-05-31T01:39:48.725Z,0.00
2018-05-31T01:40:48.755Z,0.00
2018-05-31T01:41:48.784Z,0.00
2018-05-31T01:42:48.823Z,0.00
2018-05-31T01:43:48.848Z,0.00
2018-05-31T01:44:48.879Z,0.00
2018-05-31T01:45:48.908Z,0.00
2018-05-31T01:46:48.942Z,0.00
2018-05-31T01:47:48.964Z,0.00
2018-05-31T01:48:48.995Z,0.00
2018-05-31T01:49:49.020Z,0.00
2018-05-31T01:50:49.054Z,0.00
2018-05-31T01:51:49.080Z,0.00
2018-05-31T01:52:49.110Z,0.00
2018-05-31T01:53:49.153Z,0.00
2018-05-31T01:54:49.170Z,0.00
2018-05-31T01:55:49.200Z,0.00
2018-05-31T01:56:49.235Z,0.00
2018-05-31T01:57:49.263Z,0.00
2018-05-31T01:58:49.284Z,0.00
2018-05-31T01:59:49.317Z,0.00
2018-05-31T02:00:49.349Z,0.00
2018-05-31T02:01:49.375Z,0.00
2018-05-31T02:02:49.403Z,0.00
2018-05-31T02:03:49.434Z,0.00
2018-05-31T02:04:49.465Z,0.00
2018-05-31T02:05:49.495Z,0.00
2018-05-31T02:06:49.530Z,0.00
2018-05-31T02:07:49.555Z,4.00
2018-05-31T02:08:49.579Z,4.00
2018-05-31T02:09:49.610Z,4.00
2018-05-31T02:10:49.640Z,4.00
2018-05-31T02:11:49.670Z,4.00
2018-05-31T02:12:49.698Z,0.00
2018-05-31T02:13:49.730Z,0.00
2018-05-31T02:14:49.759Z,0.00
2018-05-31T02:15:49.784Z,4.00
2018-05-31T02:16:49.814Z,4.00
2018-05-31T02:17:49.857Z,4.00
2018-05-31T02:18:49.877Z,4.00
2018-05-31T02:19:49.904Z,4.00
2018-05-31T02:20:49.935Z,4.00
2018-05-31T02:21:49.959Z,8.00
2018-05-31T02:22:49.997Z,4.00
2018-05-31T02:23:50.018Z,8.00
2018-05-31T02:24:50.050Z,4.00
2018-05-31T02:25:50.079Z,8.00
2018-05-31T02:26:50.108Z,8.00
2018-05-31T02:27:50.137Z,12.00
2018-05-31T02:28:50.168Z,12.00
2018-05-31T02:29:50.194Z,12.00
2018-05-31T02:30:50.227Z,12.00
2018-05-31T02:31:50.253Z,12.00
2018-05-31T02:32:50.301Z,16.00
2018-05-31T02:33:50.309Z,20.00
2018-05-31T02:34:50.344Z,20.00
2018-05-31T02:35:50.373Z,24.00
2018-05-31T02:36:50.417Z,24.00
2018-05-31T02:37:50.432Z,28.00
2018-05-31T02:38:50.462Z,32.00
2018-05-31T02:39:50.488Z,36.00
2018-05-31T02:40:50.516Z,40.00
2018-05-31T02:41:50.552Z,44.00
2018-05-31T02:42:50.576Z,48.00
2018-05-31T02:43:50.602Z,56.00
2018-05-31T02:44:50.632Z,60.00
2018-05-31T02:45:50.663Z,64.00
2018-05-31T02:46:50.695Z,72.00
2018-05-31T02:47:50.722Z,80.00
2018-05-31T02:48:50.752Z,84.00
2018-05-31T02:49:50.781Z,96.00
2018-05-31T02:50:50.811Z,104.00
2018-05-31T02:51:50.837Z,112.00
2018-05-31T02:52:50.867Z,124.00
2018-05-31T02:53:50.901Z,132.00
2018-05-31T02:54:50.930Z,148.00
2018-05-31T02:55:50.955Z,156.00
2018-05-31T02:56:50.987Z,168.00
2018-05-31T02:57:51.016Z,180.00
2018-05-31T02:58:51.048Z,196.00
2018-05-31T02:59:51.073Z,212.00
2018-05-31T03:00:51.105Z,228.00
2018-05-31T03:01:51.134Z,244.00
2018-05-31T03:02:51.160Z,260.00
2018-05-31T03:03:51.191Z,276.00
2018-05-31T03:04:51.218Z,296.00
2018-05-31T03:05:51.251Z,312.00
2018-05-31T03:06:51.277Z,332.00
2018-05-31T03:07:51.367Z,348.00
2018-05-31T03:08:51.332Z,372.00
2018-05-31T03:09:51.363Z,392.00
2018-05-31T03:10:51.402Z,416.00
2018-05-31T03:11:51.421Z,440.00
2018-05-31T03:12:51.451Z,460.00
2018-05-31T03:13:51.482Z,484.00
2018-05-31T03:14:51.507Z,508.00
2018-05-31T03:15:51.541Z,532.00
2018-05-31T03:16:51.568Z,560.00
2018-05-31T03:17:51.598Z,584.00
2018-05-31T03:18:51.631Z,608.00
2018-05-31T03:19:51.664Z,636.00
2018-05-31T03:20:51.685Z,664.00
2018-05-31T03:21:51.711Z,688.00
2018-05-31T03:22:51.744Z,720.00
2018-05-31T03:23:51.766Z,748.00
2018-05-31T03:24:51.799Z,776.00
2018-05-31T03:25:51.828Z,812.00
2018-05-31T03:26:51.862Z,840.00
2018-05-31T03:27:51.887Z,872.00
2018-05-31T03:28:51.917Z,900.00
2018-05-31T03:29:51.942Z,932.00
2018-05-31T03:30:51.976Z,968.00
2018-05-31T03:31:52.004Z,996.00
2018-05-31T03:32:52.031Z,1032.00
2018-05-31T03:33:52.061Z,1060.00
2018-05-31T03:34:52.091Z,1092.00
2018-05-31T03:35:52.116Z,1128.00
2018-05-31T03:36:52.147Z,1160.00
2018-05-31T03:37:52.184Z,1192.00
2018-05-31T03:38:52.206Z,1220.00
2018-05-31T03:39:52.238Z,1252.00
2018-05-31T03:40:52.265Z,1280.00
2018-05-31T03:41:52.310Z,1316.00
2018-05-31T03:42:52.320Z,1348.00
2018-05-31T03:43:52.353Z,1380.00
2018-05-31T03:44:52.376Z,1412.00
2018-05-31T03:45:52.410Z,1444.00
2018-05-31T03:46:52.446Z,1472.00
2018-05-31T03:47:52.470Z,1508.00
2018-05-31T03:48:52.497Z,1540.00
2018-05-31T03:49:52.571Z,1568.00
2018-05-31T03:50:52.549Z,1604.00
2018-05-31T03:51:52.583Z,1640.00
2018-05-31T03:52:52.614Z,1668.00
2018-05-31T03:53:52.640Z,1700.00
2018-05-31T03:54:52.665Z,1732.00
2018-05-31T03:55:52.699Z,1764.00
2018-05-31T03:56:52.729Z,1800.00
2018-05-31T03:57:52.756Z,1828.00
2018-05-31T03:58:52.786Z,1856.00
2018-05-31T03:59:52.810Z,1884.00
2018-05-31T04:00:52.843Z,1908.00
2018-05-31T04:01:52.874Z,1932.00
2018-05-31T04:02:52.900Z,1952.00
2018-05-31T04:03:52.933Z,1972.00
2018-05-31T04:04:52.960Z,2000.00
2018-05-31T04:05:52.985Z,2024.00
2018-05-31T04:06:53.015Z,2048.00
2018-05-31T04:07:53.046Z,2064.00
2018-05-31T04:08:53.079Z,2092.00
2018-05-31T04:09:53.099Z,2116.00
2018-05-31T04:10:53.135Z,2136.00
2018-05-31T04:11:53.159Z,2160.00
2018-05-31T04:12:53.185Z,2180.00
2018-05-31T04:13:53.219Z,2200.00
2018-05-31T04:14:53.249Z,2220.00
2018-05-31T04:15:53.275Z,2236.00
2018-05-31T04:16:53.305Z,2256.00
2018-05-31T04:17:53.337Z,2280.00
2018-05-31T04:18:53.359Z,2300.00
2018-05-31T04:19:53.389Z,2320.00
2018-05-31T04:20:53.422Z,2340.00
2018-05-31T04:21:53.447Z,2360.00
2018-05-31T04:22:53.482Z,2380.00
2018-05-31T04:23:53.503Z,2400.00
2018-05-31T04:24:53.538Z,2420.00
2018-05-31T04:25:53.568Z,2444.00
2018-05-31T04:26:53.594Z,2460.00
2018-05-31T04:27:53.622Z,2488.00
2018-05-31T04:28:53.649Z,2504.00
2018-05-31T04:29:53.682Z,2524.00
2018-05-31T04:30:53.709Z,2540.00
2018-05-31T04:31:53.740Z,2560.00
2018-05-31T04:32:53.769Z,2580.00
2018-05-31T04:33:53.793Z,2596.00
2018-05-31T04:34:53.827Z,2616.00
2018-05-31T04:35:53.855Z,2632.00
2018-05-31T04:36:53.883Z,2648.00
2018-05-31T04:37:53.910Z,2668.00
2018-05-31T04:38:53.938Z,2684.00
2018-05-31T04:39:53.963Z,2704.00
2018-05-31T04:40:53.995Z,2716.00
2018-05-31T04:41:54.030Z,2728.00
2018-05-31T04:42:54.057Z,2752.00
2018-05-31T04:43:54.087Z,2764.00
2018-05-31T04:44:54.107Z,2784.00
2018-05-31T04:45:54.139Z,2800.00
2018-05-31T04:46:54.174Z,2816.00
2018-05-31T04:47:54.198Z,2828.00
2018-05-31T04:48:54.223Z,2844.00
2018-05-31T04:49:54.256Z,2860.00
2018-05-31T04:50:54.285Z,2872.00
2018-05-31T04:51:54.312Z,2884.00
2018-05-31T04:52:54.343Z,2904.00
2018-05-31T04:53:54.375Z,2916.00
2018-05-31T04:54:54.409Z,2920.00
2018-05-31T04:55:54.432Z,2944.00
2018-05-31T04:56:54.453Z,2960.00
2018-05-31T04:57:54.490Z,2968.00
2018-05-31T04:58:54.520Z,2984.00
2018-05-31T04:59:54.545Z,3000.00
2018-05-31T05:00:54.573Z,3012.00
2018-05-31T05:01:54.603Z,3028.00
2018-05-31T05:02:54.638Z,3044.00
2018-05-31T05:03:54.658Z,3064.00
2018-05-31T05:04:54.689Z,3068.00
2018-05-31T05:05:54.716Z,3084.00
2018-05-31T05:06:54.746Z,3096.00
2018-05-31T05:07:54.776Z,3112.00
2018-05-31T05:08:54.801Z,3128.00
2018-05-31T05:09:54.832Z,3144.00
2018-05-31T05:10:54.863Z,3152.00
2018-05-31T05:11:54.886Z,3168.00
2018-05-31T05:12:54.927Z,3180.00
2018-05-31T05:13:54.946Z,3188.00
2018-05-31T05:14:54.977Z,3196.00
2018-05-31T05:15:55.001Z,3188.00
2018-05-31T05:16:55.032Z,3220.00
2018-05-31T05:17:55.065Z,3224.00
2018-05-31T05:18:55.095Z,3240.00
2018-05-31T05:19:55.125Z,3244.00
2018-05-31T05:20:55.145Z,3256.00
2018-05-31T05:21:55.177Z,3268.00
2018-05-31T05:22:55.211Z,3280.00
2018-05-31T05:23:55.236Z,3296.00
2018-05-31T05:24:55.261Z,3308.00
2018-05-31T05:25:55.292Z,3316.00
2018-05-31T05:26:55.329Z,3324.00
2018-05-31T05:27:55.352Z,3328.00
2018-05-31T05:28:55.385Z,3340.00
2018-05-31T05:29:55.406Z,3344.00
2018-05-31T05:30:55.446Z,3348.00
2018-05-31T05:31:55.466Z,3356.00
2018-05-31T05:32:55.497Z,3360.00
2018-05-31T05:33:55.534Z,3372.00
2018-05-31T05:34:55.551Z,3384.00
2018-05-31T05:35:55.582Z,3396.00
2018-05-31T05:36:55.614Z,3384.00
2018-05-31T05:37:55.641Z,3412.00
2018-05-31T05:38:55.671Z,3432.00
2018-05-31T05:39:55.697Z,3440.00
2018-05-31T05:40:55.732Z,3452.00
2018-05-31T05:41:55.758Z,3464.00
2018-05-31T05:42:55.790Z,3472.00
2018-05-31T05:43:55.818Z,3484.00
2018-05-31T05:44:55.840Z,3492.00
2018-05-31T05:45:55.879Z,3504.00
2018-05-31T05:46:55.915Z,3516.00
2018-05-31T05:47:55.937Z,3532.00
2018-05-31T05:48:55.961Z,3544.00
2018-05-31T05:49:55.988Z,3556.00
2018-05-31T05:50:56.023Z,3572.00
2018-05-31T05:51:56.045Z,3580.00
2018-05-31T05:52:56.074Z,3604.00
2018-05-31T05:53:56.106Z,3620.00
2018-05-31T05:54:56.144Z,3644.00
2018-05-31T05:55:56.170Z,3656.00
2018-05-31T05:56:56.190Z,3664.00
2018-05-31T05:57:56.221Z,3668.00
2018-05-31T05:58:56.253Z,3688.00
2018-05-31T05:59:56.280Z,3696.00
2018-05-31T06:00:56.310Z,3704.00
2018-05-31T06:01:56.414Z,3724.00
2018-05-31T06:02:56.365Z,3732.00
2018-05-31T06:03:56.396Z,3732.00
2018-05-31T06:04:56.432Z,3760.00
2018-05-31T06:05:56.454Z,3772.00
2018-05-31T06:06:56.487Z,3788.00
2018-05-31T06:07:56.509Z,3804.00
2018-05-31T06:08:56.544Z,3812.00
2018-05-31T06:09:56.627Z,3820.00
2018-05-31T06:10:56.600Z,3836.00
2018-05-31T06:11:56.629Z,3848.00
2018-05-31T06:12:56.661Z,3864.00
2018-05-31T06:13:56.687Z,3884.00
2018-05-31T06:14:56.726Z,3900.00
2018-05-31T06:15:56.745Z,3924.00
2018-05-31T06:16:56.780Z,3940.00
2018-05-31T06:17:56.802Z,3952.00
2018-05-31T06:18:57.624Z,3960.00
2018-05-31T06:19:56.860Z,3972.00
2018-05-31T06:20:56.896Z,3976.00
2018-05-31T06:21:56.980Z,3936.00
2018-05-31T06:22:56.951Z,3992.00
2018-05-31T06:23:56.986Z,4012.00
2018-05-31T06:24:57.009Z,4036.00
2018-05-31T06:25:57.035Z,4056.00
2018-05-31T06:26:57.071Z,4080.00
2018-05-31T06:27:57.099Z,4084.00
2018-05-31T06:28:57.125Z,4124.00
2018-05-31T06:29:57.156Z,4140.00
2018-05-31T06:30:57.184Z,4148.00
2018-05-31T06:31:57.209Z,4168.00
2018-05-31T06:32:57.244Z,4168.00
2018-05-31T06:33:57.273Z,4176.00
2018-05-31T06:34:57.300Z,4188.00
2018-05-31T06:35:57.331Z,4196.00
2018-05-31T06:36:57.360Z,4204.00
2018-05-31T06:37:57.392Z,4224.00
2018-05-31T06:38:57.418Z,4236.00
2018-05-31T06:39:57.452Z,4244.00
2018-05-31T06:40:57.472Z,4252.00
2018-05-31T06:41:57.508Z,4256.00
2018-05-31T06:42:57.560Z,4268.00
2018-05-31T06:43:57.565Z,4272.00
2018-05-31T06:44:57.595Z,4284.00
2018-05-31T06:45:57.622Z,4292.00
2018-05-31T06:46:57.653Z,4296.00
2018-05-31T06:47:57.687Z,4308.00
2018-05-31T06:48:57.718Z,4316.00
2018-05-31T06:49:57.743Z,4324.00
2018-05-31T06:50:57.768Z,4328.00
2018-05-31T06:51:57.797Z,4336.00
2018-05-31T06:52:57.828Z,4344.00
2018-05-31T06:53:57.866Z,4352.00
2018-05-31T06:54:57.890Z,4364.00
2018-05-31T06:55:57.919Z,4376.00
2018-05-31T06:56:57.953Z,4396.00
2018-05-31T06:57:57.978Z,4408.00
2018-05-31T06:58:58.012Z,4432.00
2018-05-31T06:59:58.033Z,4444.00
2018-05-31T07:00:58.066Z,4460.00
2018-05-31T07:01:58.116Z,4468.00
2018-05-31T07:02:58.122Z,4480.00
2018-05-31T07:03:58.152Z,4492.00
2018-05-31T07:04:58.181Z,4508.00
2018-05-31T07:05:58.226Z,4540.00
2018-05-31T07:06:58.252Z,4460.00
2018-05-31T07:07:58.275Z,4552.00
2018-05-31T07:08:58.302Z,4564.00
2018-05-31T07:09:58.336Z,4568.00
2018-05-31T07:10:58.371Z,4588.00
2018-05-31T07:11:58.396Z,4604.00
2018-05-31T07:12:58.425Z,4620.00
2018-05-31T07:13:58.453Z,4640.00
2018-05-31T07:14:58.477Z,4656.00
2018-05-31T07:15:58.553Z,4664.00
2018-05-31T07:16:58.538Z,4672.00
2018-05-31T07:17:58.568Z,4680.00
2018-05-31T07:18:58.597Z,4700.00
2018-05-31T07:19:58.627Z,4704.00
2018-05-31T07:20:58.658Z,4720.00
2018-05-31T07:21:58.689Z,4736.00
2018-05-31T07:22:58.718Z,4756.00
2018-05-31T07:23:58.748Z,4760.00
2018-05-31T07:24:58.776Z,4776.00
2018-05-31T07:25:58.806Z,4804.00
2018-05-31T07:26:58.844Z,4820.00
2018-05-31T07:27:58.886Z,4820.00
2018-05-31T07:28:58.898Z,4848.00
2018-05-31T07:29:58.928Z,4860.00
2018-05-31T07:30:58.956Z,4876.00
2018-05-31T07:31:58.992Z,4884.00
2018-05-31T07:32:59.012Z,4904.00
2018-05-31T07:33:59.049Z,4960.00
2018-05-31T07:34:59.079Z,4916.00
2018-05-31T07:35:59.114Z,4924.00
2018-05-31T07:36:59.134Z,4924.00
2018-05-31T07:37:59.166Z,4936.00
2018-05-31T07:38:59.191Z,4920.00
2018-05-31T07:39:59.234Z,4888.00
2018-05-31T07:40:59.256Z,4932.00
2018-05-31T07:41:59.281Z,4956.00
2018-05-31T07:42:59.334Z,4976.00
2018-05-31T07:43:59.342Z,4996.00
2018-05-31T07:44:59.371Z,5040.00
2018-05-31T07:45:59.402Z,5048.00
2018-05-31T07:46:59.434Z,5076.00
2018-05-31T07:47:59.463Z,5108.00
2018-05-31T07:48:59.491Z,5136.00
2018-05-31T07:49:59.537Z,5176.00
2018-05-31T07:50:59.550Z,5188.00
2018-05-31T07:51:59.584Z,5184.00
2018-05-31T07:52:59.609Z,5212.00
2018-05-31T07:53:59.650Z,5224.00
2018-05-31T07:54:59.670Z,5236.00
2018-05-31T07:55:59.696Z,5256.00
2018-05-31T07:56:59.730Z,5264.00
2018-05-31T07:57:59.809Z,5272.00
2018-05-31T07:58:59.789Z,5320.00
2018-05-31T07:59:59.824Z,5276.00
2018-05-31T08:00:59.849Z,5276.00
2018-05-31T08:01:59.879Z,5300.00
2018-05-31T08:02:59.923Z,5308.00
2018-05-31T08:03:59.934Z,5256.00
2018-05-31T08:04:59.965Z,5340.00
2018-05-31T08:06:00.059Z,5380.00
2018-05-31T08:07:00.031Z,5380.00
2018-05-31T08:08:00.059Z,5396.00
2018-05-31T08:09:00.093Z,5416.00
2018-05-31T08:10:00.120Z,5440.00
2018-05-31T08:11:00.155Z,5456.00
2018-05-31T08:12:00.177Z,5496.00
2018-05-31T08:13:00.207Z,5500.00
2018-05-31T08:14:00.239Z,5536.00
2018-05-31T08:15:00.270Z,5576.00
2018-05-31T08:16:00.303Z,5496.00
2018-05-31T08:17:00.330Z,5620.00
2018-05-31T08:18:00.359Z,5856.00
2018-05-31T08:19:00.389Z,5720.00
2018-05-31T08:20:00.424Z,5760.00
2018-05-31T08:21:00.449Z,5800.00
2018-05-31T08:22:00.479Z,5816.00
2018-05-31T08:23:00.509Z,5836.00
2018-05-31T08:24:00.539Z,5864.00
2018-05-31T08:25:00.572Z,5836.00
2018-05-31T08:26:00.603Z,5936.00
2018-05-31T08:27:00.633Z,5984.00
2018-05-31T08:28:00.660Z,6004.00
2018-05-31T08:29:00.689Z,6052.00
2018-05-31T08:30:00.722Z,6052.00
2018-05-31T08:31:00.753Z,6068.00
2018-05-31T08:32:00.786Z,6064.00
2018-05-31T08:33:00.812Z,6064.00
2018-05-31T08:34:00.839Z,6120.00
2018-05-31T08:35:00.868Z,6084.00
2018-05-31T08:36:00.903Z,6096.00
2018-05-31T08:37:00.930Z,6120.00
2018-05-31T08:38:00.965Z,6128.00
2018-05-31T08:39:00.991Z,6152.00
2018-05-31T08:40:01.023Z,6172.00
2018-05-31T08:41:01.051Z,6228.00
2018-05-31T08:42:01.079Z,6268.00
2018-05-31T08:43:01.115Z,6748.00
2018-05-31T08:44:01.183Z,6356.00
2018-05-31T08:45:01.172Z,6388.00
2018-05-31T08:46:01.210Z,6412.00
2018-05-31T08:47:01.242Z,6436.00
2018-05-31T08:48:01.268Z,6448.00
2018-05-31T08:49:01.296Z,6440.00
2018-05-31T08:50:01.332Z,6436.00
2018-05-31T08:51:01.436Z,6440.00
2018-05-31T08:52:01.384Z,6456.00
2018-05-31T08:53:01.424Z,6472.00
2018-05-31T08:54:01.444Z,6488.00
2018-05-31T08:55:01.484Z,6500.00
2018-05-31T08:56:01.508Z,6520.00
2018-05-31T08:57:01.553Z,6524.00
2018-05-31T08:58:01.571Z,6708.00
2018-05-31T08:59:01.598Z,6684.00
2018-05-31T09:00:01.629Z,6556.00
2018-05-31T09:01:01.671Z,6596.00
2018-05-31T09:02:01.686Z,6636.00
2018-05-31T09:03:01.721Z,6668.00
2018-05-31T09:04:01.748Z,6676.00
2018-05-31T09:05:01.782Z,6700.00
2018-05-31T09:06:01.808Z,6796.00
2018-05-31T09:07:01.842Z,6720.00
2018-05-31T09:08:01.868Z,6724.00
2018-05-31T09:09:01.898Z,6736.00
2018-05-31T09:10:01.935Z,6792.00
2018-05-31T09:11:01.972Z,6788.00
2018-05-31T09:12:01.987Z,6848.00
2018-05-31T09:13:02.024Z,6860.00
2018-05-31T09:14:02.057Z,6924.00
2018-05-31T09:15:02.095Z,6948.00
2018-05-31T09:16:02.113Z,7344.00
2018-05-31T09:17:02.144Z,7040.00
2018-05-31T09:18:02.173Z,7096.00
2018-05-31T09:19:02.202Z,7124.00
2018-05-31T09:20:02.234Z,7148.00
2018-05-31T09:21:02.269Z,7164.00
2018-05-31T09:22:02.308Z,7192.00
2018-05-31T09:23:02.324Z,7212.00
2018-05-31T09:24:02.353Z,7252.00
2018-05-31T09:25:02.386Z,7280.00
2018-05-31T09:26:02.426Z,7452.00
2018-05-31T09:27:02.451Z,7308.00
2018-05-31T09:28:02.477Z,7328.00
2018-05-31T09:29:02.506Z,7384.00
2018-05-31T09:30:02.536Z,7396.00
2018-05-31T09:31:02.570Z,7424.00
2018-05-31T09:32:02.601Z,7444.00
2018-05-31T09:33:02.636Z,7476.00
2018-05-31T09:34:02.658Z,7504.00
2018-05-31T09:35:02.756Z,7516.00
2018-05-31T09:36:02.718Z,7560.00
2018-05-31T09:37:02.757Z,7604.00
2018-05-31T09:38:02.782Z,7632.00
2018-05-31T09:39:02.812Z,7676.00
2018-05-31T09:40:02.844Z,7756.00
2018-05-31T09:41:02.883Z,7896.00
2018-05-31T09:42:02.906Z,7932.00
2018-05-31T09:43:02.937Z,7972.00
2018-05-31T09:44:02.972Z,8076.00
2018-05-31T09:45:02.996Z,8068.00
2018-05-31T09:46:03.026Z,8180.00
2018-05-31T09:47:03.058Z,8312.00
2018-05-31T09:48:03.090Z,8480.00
2018-05-31T09:49:03.120Z,8608.00
2018-05-31T09:50:03.154Z,8680.00
2018-05-31T09:51:03.180Z,8804.00
2018-05-31T09:52:03.216Z,8920.00
2018-05-31T09:53:03.250Z,8988.00
2018-05-31T09:54:03.278Z,9032.00
2018-05-31T09:55:03.305Z,9068.00
2018-05-31T09:56:03.340Z,9056.00
2018-05-31T09:57:03.362Z,9068.00
2018-05-31T09:58:03.397Z,9104.00
2018-05-31T09:59:03.428Z,9208.00
2018-05-31T10:00:03.457Z,9320.00
2018-05-31T10:01:03.485Z,9392.00
2018-05-31T10:02:03.525Z,9336.00
2018-05-31T10:03:03.552Z,9308.00
2018-05-31T10:04:03.582Z,9328.00
2018-05-31T10:05:03.610Z,9416.00
2018-05-31T10:06:03.651Z,9524.00
2018-05-31T10:07:03.672Z,9604.00
2018-05-31T10:08:03.707Z,9592.00
2018-05-31T10:09:03.735Z,9540.00
2018-05-31T10:10:03.767Z,9504.00
2018-05-31T10:11:03.800Z,9560.00
2018-05-31T10:12:03.828Z,9556.00
2018-05-31T10:13:03.863Z,9564.00
2018-05-31T10:14:03.890Z,9548.00
2018-05-31T10:15:03.921Z,9608.00
2018-05-31T10:16:03.996Z,9716.00
2018-05-31T10:17:04.030Z,9776.00
2018-05-31T10:18:04.015Z,9796.00
2018-05-31T10:19:04.052Z,9816.00
2018-05-31T10:20:04.078Z,9852.00
2018-05-31T10:21:04.103Z,9956.00
2018-05-31T10:22:04.135Z,9944.00
2018-05-31T10:23:04.165Z,10104.00
2018-05-31T10:24:04.200Z,10368.00
2018-05-31T10:25:04.233Z,10484.00
2018-05-31T10:26:04.261Z,10636.00
2018-05-31T10:27:04.290Z,10964.00
2018-05-31T10:28:04.325Z,10296.00
2018-05-31T10:29:04.352Z,10820.00
2018-05-31T10:30:04.422Z,11208.00
2018-05-31T10:31:04.413Z,11048.00
2018-05-31T10:32:04.444Z,11296.00
2018-05-31T10:33:04.478Z,11548.00
2018-05-31T10:34:04.511Z,11664.00
2018-05-31T10:35:04.540Z,11496.00
2018-05-31T10:36:04.569Z,11452.00
2018-05-31T10:37:04.602Z,11372.00
2018-05-31T10:38:04.638Z,11916.00
2018-05-31T10:39:04.664Z,12436.00
2018-05-31T10:40:04.696Z,12664.00
2018-05-31T10:41:04.727Z,12796.00
2018-05-31T10:42:04.758Z,12880.00
2018-05-31T10:43:04.790Z,12840.00
2018-05-31T10:44:04.820Z,12304.00
2018-05-31T10:45:04.852Z,12788.00
2018-05-31T10:46:04.884Z,13720.00
2018-05-31T10:47:04.917Z,13556.00
2018-05-31T10:48:04.946Z,13552.00
2018-05-31T10:49:04.984Z,13724.00
2018-05-31T10:50:05.010Z,14152.00
2018-05-31T10:51:05.043Z,14964.00
2018-05-31T10:52:05.076Z,15712.00
2018-05-31T10:53:05.104Z,16272.00
2018-05-31T10:54:05.138Z,16900.00
2018-05-31T10:55:05.169Z,17296.00
2018-05-31T10:56:05.203Z,18020.00
2018-05-31T10:57:05.228Z,19104.00
2018-05-31T10:58:05.260Z,20256.00
2018-05-31T10:59:05.295Z,22048.00
2018-05-31T11:00:05.332Z,24928.00
2018-05-31T11:01:05.353Z,29088.00
2018-05-31T11:02:05.388Z,35168.00
2018-05-31T11:03:05.423Z,37728.00
2018-05-31T11:04:05.447Z,38656.00
2018-05-31T11:05:05.487Z,38976.00
2018-05-31T11:06:05.512Z,36544.00
2018-05-31T11:07:05.562Z,14132.00
2018-05-31T11:08:05.585Z,13648.00
2018-05-31T11:09:05.627Z,14472.00
2018-05-31T11:10:05.648Z,39296.00
2018-05-31T11:11:05.684Z,39424.00
2018-05-31T11:12:05.713Z,43616.00
2018-05-31T11:13:05.756Z,43232.00
2018-05-31T11:14:05.786Z,42336.00
2018-05-31T11:15:05.814Z,42976.00
2018-05-31T11:16:05.848Z,43712.00
2018-05-31T11:17:05.890Z,44512.00
2018-05-31T11:18:05.922Z,43104.00
2018-05-31T11:19:05.958Z,41664.00
2018-05-31T11:20:05.989Z,18300.00
2018-05-31T11:21:06.027Z,42624.00
2018-05-31T11:22:06.066Z,45280.00
2018-05-31T11:23:06.097Z,48416.00
2018-05-31T11:24:06.134Z,48896.00
2018-05-31T11:25:06.177Z,48416.00
2018-05-31T11:26:06.211Z,48608.00
2018-05-31T11:27:06.243Z,47424.00
2018-05-31T11:28:06.278Z,46880.00
2018-05-31T11:29:06.318Z,22752.00
2018-05-31T11:30:06.359Z,44672.00
2018-05-31T11:31:06.396Z,48416.00
2018-05-31T11:32:06.429Z,48160.00
2018-05-31T11:33:06.468Z,49728.00
2018-05-31T11:34:06.509Z,49568.00
2018-05-31T11:35:06.550Z,48544.00
2018-05-31T11:36:06.582Z,49792.00
2018-05-31T11:37:06.623Z,50656.00
2018-05-31T11:38:06.660Z,51072.00
2018-05-31T11:39:06.693Z,50560.00
2018-05-31T11:40:06.739Z,49184.00
2018-05-31T11:41:06.771Z,42432.00
2018-05-31T11:42:06.814Z,52576.00
2018-05-31T11:43:06.850Z,32384.00
2018-05-31T11:44:06.892Z,17100.00
2018-05-31T11:45:06.927Z,53312.00
2018-05-31T11:46:06.963Z,26400.00
2018-05-31T11:47:07.008Z,18784.00
2018-05-31T11:48:07.044Z,17232.00
2018-05-31T11:49:07.083Z,16908.00
2018-05-31T11:50:07.132Z,18112.00
2018-05-31T11:51:07.160Z,17608.00
2018-05-31T11:52:07.194Z,17004.00
2018-05-31T11:53:07.234Z,22592.00
2018-05-31T11:54:07.272Z,19200.00
2018-05-31T11:55:07.317Z,50112.00
2018-05-31T11:56:07.340Z,61152.00
2018-05-31T11:57:07.382Z,56768.00
2018-05-31T11:58:07.422Z,58112.00
2018-05-31T11:59:07.464Z,62272.00
2018-05-31T12:00:07.495Z,62400.00
2018-05-31T12:01:07.531Z,60960.00
2018-05-31T12:02:07.566Z,60704.00
2018-05-31T12:03:07.606Z,61696.00
2018-05-31T12:04:07.647Z,64096.00
2018-05-31T12:05:07.684Z,64320.00
2018-05-31T12:06:07.731Z,22624.00
2018-05-31T12:07:07.759Z,39328.00
2018-05-31T12:08:07.808Z,64704.00
2018-05-31T12:09:07.840Z,16140.00
2018-05-31T12:10:07.876Z,15976.00
2018-05-31T12:11:07.909Z,16772.00
2018-05-31T12:12:07.979Z,19264.00
2018-05-31T12:13:07.990Z,61824.00
2018-05-31T12:14:08.033Z,66496.00
2018-05-31T12:15:08.069Z,64640.00
2018-05-31T12:16:08.106Z,64480.00
2018-05-31T12:17:08.145Z,63712.00
2018-05-31T12:18:08.190Z,66592.00
2018-05-31T12:19:08.218Z,65248.00